Terminal Aerodrome Forecast
Issued by NWS

Current Version | Previous Version | Text Only | Print | Product List | Glossary On
Versions: 1 2 3 4 5 6 7 8 9 10 11 12
000
FTUS45 KRIW 211100
TAFCOD
TAF
KCOD 211121Z 2112/2212 24017G25KT P6SM SCT050 BKN090 WS018/26043KT
     FM211800 27014G20KT P6SM BKN050 WS018/27038KT
     FM220000 28012G18KT P6SM SCT060
      AMD LTD TO CLD VIS AND WIND=

USA.gov is the U.S. government's official web portal to all federal, state and local government web resources and services.